Time,TemperatureF,DewpointF,PressureIn,WindDirection,WindDirectionDegrees,WindSpeedMPH,WindSpeedGustMPH,Humidity,HourlyPrecipIn,Conditions,Clouds,dailyrainin,SoftwareType,DateUTC
2013-05-04 00:01:00,61.0,44.0,30.10,North,351,13.0,16.0,54,0.00,,,0.00,,2013-05-04 07:01:00,
2013-05-04 00:11:00,58.0,45.0,30.09,NNW,348,17.0,18.0,62,0.00,,,0.00,,2013-05-04 07:11:00,
2013-05-04 00:21:00,58.0,45.0,30.09,NNW,348,17.0,18.0,62,0.00,,,0.00,,2013-05-04 07:21:00,
2013-05-04 00:31:00,58.0,45.0,30.09,North,351,17.0,21.0,61,0.00,,,0.00,,2013-05-04 07:31:00,
2013-05-04 00:41:00,58.0,45.0,30.09,North,351,17.0,21.0,61,0.00,,,0.00,,2013-05-04 07:41:00,
2013-05-04 00:52:00,59.0,45.0,30.09,NNW,348,16.0,22.0,59,0.00,,,0.00,,2013-05-04 07:52:00,
2013-05-04 01:01:00,59.0,44.0,30.09,North,352,16.0,19.0,57,0.00,,,0.00,,2013-05-04 08:01:00,
2013-05-04 01:11:00,59.0,44.0,30.09,North,352,16.0,19.0,57,0.00,,,0.00,,2013-05-04 08:11:00,
2013-05-04 01:21:00,60.0,44.0,30.08,NNE,15,17.0,19.0,55,0.00,,,0.00,,2013-05-04 08:21:00,
2013-05-04 01:31:00,61.0,44.0,30.08,North,350,17.0,20.0,53,0.00,,,0.00,,2013-05-04 08:31:00,
2013-05-04 01:41:00,61.0,44.0,30.08,North,350,17.0,20.0,53,0.00,,,0.00,,2013-05-04 08:41:00,
2013-05-04 01:52:00,61.0,45.0,30.07,NNW,341,18.0,21.0,55,0.00,,,0.00,,2013-05-04 08:52:00,
2013-05-04 02:02:00,61.0,43.0,30.08,NNW,337,19.0,22.0,51,0.00,,,0.00,,2013-05-04 09:02:00,
2013-05-04 02:21:00,62.0,44.0,30.07,North,351,16.0,19.0,51,0.00,,,0.00,,2013-05-04 09:21:00,
2013-05-04 02:32:00,61.0,42.0,30.07,NNW,344,12.0,21.0,50,0.00,,,0.00,,2013-05-04 09:32:00,
2013-05-04 02:52:00,61.0,41.0,30.07,North,1,14.0,19.0,48,0.00,,,0.00,,2013-05-04 09:52:00,
2013-05-04 03:02:00,61.0,39.0,30.06,North,2,16.0,17.0,44,0.00,,,0.00,,2013-05-04 10:02:00,
2013-05-04 03:22:00,62.0,39.0,30.06,North,5,12.0,14.0,42,0.00,,,0.00,,2013-05-04 10:22:00,
2013-05-04 03:32:00,62.0,37.0,30.05,North,8,10.0,14.0,39,0.00,,,0.00,,2013-05-04 10:32:00,
2013-05-04 03:53:00,62.0,37.0,30.05,North,4,9.0,11.0,40,0.00,,,0.00,,2013-05-04 10:53:00,
2013-05-04 04:02:00,62.0,37.0,30.05,North,9,8.0,11.0,40,0.00,,,0.00,,2013-05-04 11:02:00,
2013-05-04 04:31:00,64.0,35.0,30.04,East,86,0.0,8.0,34,0.00,,,0.00,,2013-05-04 11:31:00,
2013-05-04 04:57:00,64.0,37.0,30.04,North,0,0.0,0.0,36,0.00,,,0.00,,2013-05-04 11:57:00,
2013-05-04 05:22:00,63.0,32.0,30.04,ENE,77,9.0,12.0,31,0.00,,,0.00,,2013-05-04 12:22:00,
2013-05-04 05:32:00,63.0,33.0,30.04,ENE,70,8.0,12.0,33,0.00,,,0.00,,2013-05-04 12:32:00,
2013-05-04 05:52:00,64.0,31.0,30.03,ENE,75,10.0,11.0,29,0.00,,,0.00,,2013-05-04 12:52:00,
2013-05-04 06:01:00,63.0,33.0,30.04,NE,56,8.0,12.0,32,0.00,,,0.00,,2013-05-04 13:01:00,
2013-05-04 06:21:00,62.0,34.0,30.04,ENE,72,12.0,14.0,35,0.00,,,0.00,,2013-05-04 13:21:00,
2013-05-04 06:31:00,63.0,34.0,30.03,ENE,78,12.0,15.0,34,0.00,,,0.00,,2013-05-04 13:31:00,
2013-05-04 06:52:00,63.0,34.0,30.03,NE,40,11.0,16.0,34,0.00,,,0.00,,2013-05-04 13:52:00,
2013-05-04 07:01:00,64.0,34.0,30.03,NNE,18,9.0,14.0,32,0.00,,,0.00,,2013-05-04 14:01:00,
2013-05-04 07:21:00,64.0,34.0,30.03,NNE,18,13.0,14.0,32,0.00,,,0.00,,2013-05-04 14:21:00,
2013-05-04 07:32:00,64.0,33.0,30.03,NNE,21,13.0,15.0,31,0.00,,,0.00,,2013-05-04 14:32:00,
2013-05-04 07:52:00,65.0,33.0,30.03,NNE,21,10.0,15.0,30,0.00,,,0.00,,2013-05-04 14:52:00,
2013-05-04 08:01:00,66.0,32.0,30.03,NNE,21,11.0,14.0,28,0.00,,,0.00,,2013-05-04 15:01:00,
2013-05-04 08:21:00,66.0,33.0,30.03,NNE,14,11.0,14.0,29,0.00,,,0.00,,2013-05-04 15:21:00,
2013-05-04 08:33:00,66.0,32.0,30.03,North,9,8.0,14.0,28,0.00,,,0.00,,2013-05-04 15:33:00,
2013-05-04 09:03:00,68.0,35.0,30.04,North,8,2.0,5.0,30,0.00,,,0.00,,2013-05-04 16:03:00,
2013-05-04 09:22:00,69.0,36.0,30.03,North,4,4.0,10.0,30,0.00,,,0.00,,2013-05-04 16:22:00,
2013-05-04 09:32:00,70.0,35.0,30.03,North,7,5.0,8.0,28,0.00,,,0.00,,2013-05-04 16:32:00,
2013-05-04 09:52:00,71.0,36.0,30.03,NNE,26,6.0,11.0,28,0.00,,,0.00,,2013-05-04 16:52:00,
2013-05-04 10:01:00,72.0,37.0,30.03,NNE,23,8.0,12.0,28,0.00,,,0.00,,2013-05-04 17:01:00,
2013-05-04 10:22:00,73.0,36.0,30.02,NNE,18,1.0,8.0,26,0.00,,,0.00,,2013-05-04 17:22:00,
2013-05-04 10:32:00,74.0,36.0,30.01,North,8,6.0,9.0,25,0.00,,,0.00,,2013-05-04 17:32:00,
2013-05-04 10:52:00,75.0,35.0,30.01,NNE,16,6.0,14.0,23,0.00,,,0.00,,2013-05-04 17:52:00,
2013-05-04 11:01:00,75.0,34.0,30.01,NNE,16,6.0,15.0,22,0.00,,,0.00,,2013-05-04 18:01:00,
2013-05-04 11:21:00,76.0,32.0,30.01,North,2,8.0,15.0,20,0.00,,,0.00,,2013-05-04 18:21:00,
2013-05-04 11:32:00,77.0,30.0,30.01,ENE,77,14.0,24.0,18,0.00,,,0.00,,2013-05-04 18:32:00,
2013-05-04 11:52:00,77.0,29.0,30.00,NNE,32,10.0,23.0,17,0.00,,,0.00,,2013-05-04 18:52:00,
2013-05-04 12:01:00,78.0,27.0,29.99,NNE,21,19.0,29.0,15,0.00,,,0.00,,2013-05-04 19:01:00,
2013-05-04 12:21:00,78.0,27.0,29.99,ENE,68,18.0,34.0,15,0.00,,,0.00,,2013-05-04 19:21:00,
2013-05-04 12:31:00,79.0,27.0,29.98,NE,35,22.0,27.0,15,0.00,,,0.00,,2013-05-04 19:31:00,
2013-05-04 12:52:00,79.0,26.0,29.97,ENE,68,15.0,32.0,14,0.00,,,0.00,,2013-05-04 19:52:00,
2013-05-04 13:01:00,79.0,22.0,29.96,ENE,74,21.0,33.0,12,0.00,,,0.00,,2013-05-04 20:01:00,
2013-05-04 13:21:00,80.0,21.0,29.96,NNE,28,22.0,31.0,11,0.00,,,0.00,,2013-05-04 20:21:00,
2013-05-04 13:31:00,80.0,23.0,29.95,NNE,14,12.0,33.0,12,0.00,,,0.00,,2013-05-04 20:31:00,
2013-05-04 13:52:00,81.0,22.0,29.94,ENE,63,22.0,34.0,11,0.00,,,0.00,,2013-05-04 20:52:00,
2013-05-04 14:01:00,81.0,22.0,29.94,ENE,78,22.0,28.0,11,0.00,,,0.00,,2013-05-04 21:01:00,
2013-05-04 14:21:00,81.0,19.0,29.93,North,4,18.0,25.0,10,0.00,,,0.00,,2013-05-04 21:21:00,
2013-05-04 14:32:00,82.0,22.0,29.93,NNE,15,12.0,25.0,11,0.00,,,0.00,,2013-05-04 21:32:00,
2013-05-04 14:53:00,82.0,22.0,29.92,NNW,340,12.0,28.0,11,0.00,,,0.00,,2013-05-04 21:53:00,
2013-05-04 15:02:00,82.0,12.0,29.91,North,0,19.0,36.0,7,0.00,,,0.00,,2013-05-04 22:02:00,
2013-05-04 15:22:00,82.0,18.0,29.90,North,2,24.0,34.0,9,0.00,,,0.00,,2013-05-04 22:22:00,
2013-05-04 15:32:00,82.0,15.0,29.90,North,4,19.0,37.0,8,0.00,,,0.00,,2013-05-04 22:32:00,
2013-05-04 15:42:00,83.0,13.0,29.89,North,5,22.0,36.0,7,0.00,,,0.00,,2013-05-04 22:42:00,
2013-05-04 15:52:00,83.0,13.0,29.89,North,5,22.0,36.0,7,0.00,,,0.00,,2013-05-04 22:52:00,
2013-05-04 16:02:00,83.0,21.0,29.88,North,355,18.0,34.0,10,0.00,,,0.00,,2013-05-04 23:02:00,
2013-05-04 16:21:00,84.0,13.0,29.88,North,7,17.0,30.0,7,0.00,,,0.00,,2013-05-04 23:21:00,
2013-05-04 16:32:00,84.0,13.0,29.88,North,350,16.0,31.0,7,0.00,,,0.00,,2013-05-04 23:32:00,
2013-05-04 16:52:00,83.0,9.0,29.87,North,357,20.0,33.0,6,0.00,,,0.00,,2013-05-04 23:52:00,
2013-05-04 17:01:00,83.0,13.0,29.87,NNW,338,10.0,33.0,7,0.00,,,0.00,,2013-05-05 00:01:00,
2013-05-04 17:21:00,83.0,9.0,29.85,North,1,15.0,35.0,6,0.00,,,0.00,,2013-05-05 00:21:00,
2013-05-04 17:31:00,83.0,13.0,29.85,NNW,345,17.0,32.0,7,0.00,,,0.00,,2013-05-05 00:31:00,
2013-05-04 17:52:00,83.0,5.0,29.84,NNW,343,25.0,32.0,5,0.00,,,0.00,,2013-05-05 00:52:00,
2013-05-04 18:01:00,83.0,9.0,29.83,NNE,16,22.0,38.0,6,0.00,,,0.00,,2013-05-05 01:01:00,
2013-05-04 18:11:00,82.0,12.0,29.84,North,9,18.0,38.0,7,0.00,,,0.00,,2013-05-05 01:11:00,
2013-05-04 18:21:00,82.0,12.0,29.84,North,9,18.0,38.0,7,0.00,,,0.00,,2013-05-05 01:21:00,
2013-05-04 18:32:00,82.0,12.0,29.84,North,357,17.0,32.0,7,0.00,,,0.00,,2013-05-05 01:32:00,
2013-05-04 18:52:00,82.0,8.0,29.83,North,1,23.0,36.0,6,0.00,,,0.00,,2013-05-05 01:52:00,
2013-05-04 19:02:00,81.0,17.0,29.83,North,357,13.0,38.0,9,0.00,,,0.00,,2013-05-05 02:02:00,
2013-05-04 19:21:00,81.0,8.0,29.83,North,11,16.0,40.0,6,0.00,,,0.00,,2013-05-05 02:21:00,
2013-05-04 19:31:00,80.0,13.0,29.83,North,2,18.0,41.0,8,0.00,,,0.00,,2013-05-05 02:31:00,
2013-05-04 19:52:00,79.0,13.0,29.82,North,11,26.0,37.0,8,0.00,,,0.00,,2013-05-05 02:52:00,
2013-05-04 20:01:00,78.0,12.0,29.83,North,355,22.0,39.0,8,0.00,,,0.00,,2013-05-05 03:01:00,
2013-05-04 20:11:00,77.0,14.0,29.83,North,7,21.0,39.0,9,0.00,,,0.00,,2013-05-05 03:11:00,
2013-05-04 20:21:00,77.0,14.0,29.83,North,7,21.0,39.0,9,0.00,,,0.00,,2013-05-05 03:21:00,
2013-05-04 20:32:00,77.0,18.0,29.83,North,11,22.0,33.0,11,0.00,,,0.00,,2013-05-05 03:32:00,
2013-05-04 20:53:00,76.0,16.0,29.83,North,357,18.0,33.0,10,0.00,,,0.00,,2013-05-05 03:53:00,
2013-05-04 21:02:00,75.0,17.0,29.84,North,8,20.0,33.0,11,0.00,,,0.00,,2013-05-05 04:02:00,
2013-05-04 21:12:00,75.0,15.0,29.83,North,355,22.0,34.0,10,0.00,,,0.00,,2013-05-05 04:12:00,
2013-05-04 21:22:00,75.0,15.0,29.83,North,355,22.0,34.0,10,0.00,,,0.00,,2013-05-05 04:22:00,
2013-05-04 21:32:00,75.0,15.0,29.84,North,5,18.0,35.0,10,0.00,,,0.00,,2013-05-05 04:32:00,
2013-05-04 21:52:00,75.0,15.0,29.83,North,4,25.0,38.0,10,0.00,,,0.00,,2013-05-05 04:52:00,
2013-05-04 22:02:00,75.0,15.0,29.84,North,7,25.0,36.0,10,0.00,,,0.00,,2013-05-05 05:02:00,
2013-05-04 22:21:00,75.0,17.0,29.84,NNE,15,21.0,33.0,11,0.00,,,0.00,,2013-05-05 05:21:00,
2013-05-04 22:31:00,75.0,15.0,29.84,North,7,23.0,38.0,10,0.00,,,0.00,,2013-05-05 05:31:00,
2013-05-04 22:52:00,74.0,14.0,29.84,NNE,15,21.0,35.0,10,0.00,,,0.00,,2013-05-05 05:52:00,
2013-05-04 23:01:00,74.0,16.0,29.84,NNE,23,19.0,36.0,11,0.00,,,0.00,,2013-05-05 06:01:00,
2013-05-04 23:21:00,74.0,14.0,29.85,North,9,13.0,32.0,10,0.00,,,0.00,,2013-05-05 06:21:00,
2013-05-04 23:31:00,74.0,18.0,29.85,North,5,10.0,30.0,12,0.00,,,0.00,,2013-05-05 06:31:00,
2013-05-04 23:52:00,73.0,15.0,29.86,NNE,30,10.0,22.0,11,0.00,,,0.00,,2013-05-05 06:52:00,